Time;durP1;ratioP1;P1;durP2;ratioP2;P2;SDS_P1;SDS_P2;PMS_P1;PMS_P2;Temp;Humidity;BMP_temperature;BMP_pressure;BME280_temperature;BME280_humidity;BME280_pressure;Samples;Min_cycle;Max_cycle;Signal;HPM_P1;HPM_P2
2022/05/10 00:04:04;;;;;;;14.40;4.53;;;;;;;9.91;53.60;101518.05;3755057;78;98057;-87
2022/05/10 00:09:07;;;;;;;10.93;4.25;;;;;;;9.84;53.89;101517.84;3791014;76;97805;-87
2022/05/10 00:14:09;;;;;;;12.28;5.42;;;;;;;9.74;54.36;101516.92;3745198;78;98658;-86
2022/05/10 00:19:21;;;;;;;11.50;4.80;;;;;;;9.52;54.38;101498.16;3719579;78;99227;-86
2022/05/10 00:24:53;;;;;;;13.13;4.87;;;;;;;9.56;54.51;101510.89;3646607;78;99019;-87
2022/05/10 00:29:55;;;;;;;10.10;4.30;;;;;;;9.49;54.99;101516.13;3602930;79;98313;-87
2022/05/10 00:35:15;;;;;;;;;;;;;;;;;;;;;
2022/05/10 00:45:47;;;;;;;13.18;4.62;;;;;;;9.21;55.72;101495.19;3530316;81;98526;-87
2022/05/10 00:51:02;;;;;;;11.75;5.05;;;;;;;9.10;56.27;101486.58;3488068;82;99315;-87
2022/05/10 00:56:15;;;;;;;11.80;4.62;;;;;;;9.01;56.91;101481.78;3586271;79;98630;-86
2022/05/10 01:01:22;;;;;;;11.12;4.28;;;;;;;8.93;57.18;101474.98;3687561;80;98603;-85
2022/05/10 01:06:40;;;;;;;12.35;4.50;;;;;;;8.86;57.13;101474.75;3653576;78;97890;-86
2022/05/10 01:28:33;;;;;;;11.23;4.77;;;;;;;8.58;57.84;101448.51;3041185;94;98974;-86
2022/05/10 01:34:07;;;;;;;11.10;4.70;;;;;;;8.52;57.96;101455.35;3178419;85;99131;-86
2022/05/10 01:39:38;;;;;;;12.37;4.58;;;;;;;8.44;58.10;101456.78;3457964;81;97762;-86
2022/05/10 01:50:44;;;;;;;12.75;4.65;;;;;;;8.29;58.85;101445.09;3528657;78;97773;-85
2022/05/10 01:56:03;;;;;;;12.78;4.53;;;;;;;8.22;58.54;101445.62;3643585;79;98660;-86
2022/05/10 02:01:18;;;;;;;10.88;4.37;;;;;;;8.17;59.14;101439.50;3650661;79;98862;-86
2022/05/10 02:06:39;;;;;;;12.23;4.58;;;;;;;8.10;58.85;101427.72;3698989;78;34844;-85
2022/05/10 02:11:57;;;;;;;13.75;4.95;;;;;;;8.07;59.26;101430.34;3699247;78;98358;-86
2022/05/10 02:17:23;;;;;;;14.20;5.55;;;;;;;8.01;59.34;101422.09;3711487;78;98073;-86
2022/05/10 02:22:36;;;;;;;12.17;5.00;;;;;;;7.96;59.46;101408.58;3717458;78;98656;-85
2022/05/10 02:27:42;;;;;;;11.60;4.35;;;;;;;7.92;59.83;101413.13;3694394;78;98831;-86
2022/05/10 02:33:06;;;;;;;13.67;5.07;;;;;;;7.86;60.12;101402.92;3663811;77;98570;-86
2022/05/10 02:38:12;;;;;;;11.10;4.47;;;;;;;7.84;59.85;101404.39;3709428;78;98706;-85
2022/05/10 02:43:19;;;;;;;11.20;4.90;;;;;;;7.81;60.09;101393.52;3706808;78;99049;-86
2022/05/10 02:48:36;;;;;;;11.10;4.47;;;;;;;7.77;60.36;101395.36;3706011;78;34993;-86
2022/05/10 02:53:54;;;;;;;12.63;4.40;;;;;;;7.73;60.40;101379.34;3588463;79;98401;-85
2022/05/10 02:59:14;;;;;;;11.50;4.50;;;;;;;7.70;60.85;101376.47;3619145;80;98565;-86
2022/05/10 03:04:46;;;;;;;10.32;4.58;;;;;;;7.67;60.30;101379.87;3557675;79;98758;-85
2022/05/10 03:09:49;;;;;;;11.63;4.22;;;;;;;7.64;61.00;101385.45;3648571;80;98821;-85
2022/05/10 03:14:50;;;;;;;11.78;5.50;;;;;;;7.61;60.92;101385.31;3564090;80;98995;-85
2022/05/10 03:20:20;;;;;;;12.20;4.92;;;;;;;7.59;60.80;101378.02;3624145;79;98700;-86
2022/05/10 03:25:23;;;;;;;12.67;5.03;;;;;;;7.57;61.05;101379.70;3613557;80;98579;-86
2022/05/10 03:30:42;;;;;;;10.95;4.15;;;;;;;7.55;60.99;101376.52;3620023;80;34616;-86
2022/05/10 03:35:44;;;;;;;11.65;4.95;;;;;;;7.54;61.32;101381.77;3623351;79;98482;-86
2022/05/10 03:40:50;;;;;;;11.00;4.42;;;;;;;7.52;61.60;101368.95;3605655;79;98876;-86
2022/05/10 03:45:51;;;;;;;13.15;5.40;;;;;;;7.52;61.52;101375.01;3591494;79;98670;-86
2022/05/10 03:50:53;;;;;;;11.20;4.90;;;;;;;7.53;62.10;101369.17;3649701;79;98693;-86
2022/05/10 03:55:54;;;;;;;10.63;4.45;;;;;;;7.55;61.82;101367.48;3688295;78;98624;-86
2022/05/10 04:00:55;;;;;;;11.45;4.65;;;;;;;7.58;62.29;101363.50;3661288;79;98342;-86
2022/05/10 04:05:57;;;;;;;11.50;5.20;;;;;;;7.63;62.60;101362.52;3658567;78;97663;-86
2022/05/10 04:11:05;;;;;;;12.60;4.70;;;;;;;7.69;62.18;101362.55;3669517;78;98921;-85
2022/05/10 04:16:14;;;;;;;10.25;4.97;;;;;;;7.76;62.41;101355.95;3673439;79;98902;-86
2022/05/10 04:21:12;;;;;;;12.00;4.78;;;;;;;7.81;62.38;101351.05;3681169;79;98601;-85
2022/05/10 04:26:16;;;;;;;12.78;5.12;;;;;;;7.89;62.71;101347.45;3685841;78;98649;-86
2022/05/10 04:31:17;;;;;;;12.60;5.80;;;;;;;8.00;62.56;101350.00;3645827;80;98632;-85
2022/05/10 04:36:22;;;;;;;15.23;4.73;;;;;;;8.13;62.97;101344.78;3668583;79;28011;-86
2022/05/10 04:41:33;;;;;;;13.07;5.37;;;;;;;8.29;62.77;101344.98;3675185;78;98736;-87
2022/05/10 04:46:41;;;;;;;15.35;5.67;;;;;;;8.49;63.17;101341.34;3685560;78;98787;-86
2022/05/10 04:51:46;;;;;;;14.97;5.20;;;;;;;8.66;62.75;101344.69;3640898;79;98720;-85
2022/05/10 04:56:50;;;;;;;13.45;5.65;;;;;;;8.85;62.10;101340.83;3636745;78;98562;-86
2022/05/10 05:02:26;;;;;;;13.65;5.72;;;;;;;8.99;61.73;101339.89;3609189;79;98726;-87
2022/05/10 05:07:38;;;;;;;20.00;7.20;;;;;;;9.14;61.73;101343.88;3588043;80;98633;-85
2022/05/10 05:12:42;;;;;;;23.05;6.67;;;;;;;9.34;61.54;101347.06;3556461;80;98717;-90
2022/05/10 05:17:51;;;;;;;11.33;5.28;;;;;;;9.55;61.32;101340.25;3607424;80;98464;-87
2022/05/10 05:22:58;;;;;;;12.73;5.42;;;;;;;9.88;60.73;101329.03;3592882;80;98946;-85
2022/05/10 05:28:26;;;;;;;20.68;5.92;;;;;;;10.82;59.99;101333.52;3600738;80;98790;-86
2022/05/10 05:33:14;;;;;;;12.03;4.50;;;;;;;10.82;59.99;101333.52;3601739;80;99028;-86
2022/05/10 05:38:28;;;;;;;12.33;4.75;;;;;;;11.53;59.46;101319.62;3609569;80;99121;-87
2022/05/10 05:43:47;;;;;;;14.03;6.83;;;;;;;12.35;58.69;101325.03;3576076;79;99703;-87
2022/05/10 05:48:50;;;;;;;14.07;5.67;;;;;;;13.11;56.30;101323.38;3602717;80;98747;-86
2022/05/10 05:53:57;;;;;;;16.48;5.28;;;;;;;14.00;55.22;101323.38;3647385;78;99258;-87
2022/05/10 05:58:58;;;;;;;;;;;;;;;14.69;52.86;101308.08;3682976;78;99413;-87
2022/05/10 06:04:21;;;;;;;24.65;5.60;;;;;;;15.40;51.87;101312.96;3632361;78;85389;-88
2022/05/10 06:09:15;;;;;;;17.67;5.03;;;;;;;16.13;50.27;101324.17;3682314;77;99075;-88
2022/05/10 06:14:18;;;;;;;12.10;4.72;;;;;;;16.68;48.41;101322.70;3651586;77;99356;-87
2022/05/10 06:19:37;;;;;;;11.15;5.05;;;;;;;17.12;46.23;101311.95;3690013;78;34843;-88
2022/05/10 06:24:35;;;;;;;;;;;;;;;17.53;46.90;101320.83;3641495;78;98813;-87
2022/05/10 06:29:36;;;;;;;12.65;4.78;;;;;;;18.20;45.39;101308.01;3674367;78;85411;-86
2022/05/10 06:34:41;;;;;;;16.52;6.15;;;;;;;18.79;45.55;101304.00;3668917;79;98861;-86
2022/05/10 06:39:42;;;;;;;13.80;5.37;;;;;;;19.23;44.06;101296.44;3677771;79;98916;-85
2022/05/10 06:44:43;;;;;;;23.02;5.80;;;;;;;19.52;43.15;101302.52;3665152;79;99393;-86
2022/05/10 06:49:44;;;;;;;39.45;7.05;;;;;;;19.82;43.05;101295.55;3683566;78;36047;-87
2022/05/10 06:54:45;;;;;;;11.68;5.15;;;;;;;19.93;42.44;101285.82;3589267;79;98879;-87
2022/05/10 06:59:47;;;;;;;14.18;5.45;;;;;;;19.98;42.17;101291.54;3580939;80;98827;-88
2022/05/10 07:04:48;;;;;;;14.38;4.55;;;;;;;20.00;41.85;101284.32;3589421;80;98942;-85
2022/05/10 07:09:49;;;;;;;15.25;5.55;;;;;;;19.83;41.23;101278.99;3598039;80;98906;-87
2022/05/10 07:14:50;;;;;;;18.70;5.67;;;;;;;19.50;41.42;101275.00;3587877;80;99474;-88
2022/05/10 07:19:51;;;;;;;15.10;5.37;;;;;;;19.32;41.58;101266.64;3603757;80;34811;-87
2022/05/10 07:24:52;;;;;;;15.23;4.85;;;;;;;19.36;42.18;101266.00;3591188;80;98969;-86
2022/05/10 07:29:53;;;;;;;12.15;5.17;;;;;;;19.39;41.78;101272.94;3589400;80;99198;-87
2022/05/10 07:34:54;;;;;;;10.30;4.50;;;;;;;19.35;42.27;101263.02;3592169;80;99509;-88
2022/05/10 07:39:55;;;;;;;10.40;4.40;;;;;;;19.43;42.05;101265.91;3590836;80;99320;-86
2022/05/10 07:44:56;;;;;;;13.88;4.87;;;;;;;19.37;42.41;101253.03;3586572;80;99222;-87
2022/05/10 07:49:58;;;;;;;12.07;4.45;;;;;;;19.44;42.33;101251.54;3599069;80;98982;-86
2022/05/10 07:55:00;;;;;;;12.20;4.35;;;;;;;19.51;42.28;101250.05;3675318;78;99270;-87
2022/05/10 08:00:01;;;;;;;12.50;5.37;;;;;;;19.58;42.07;101240.80;3679291;78;99125;-88
2022/05/10 08:05:03;;;;;;;15.23;4.42;;;;;;;19.47;42.16;101234.56;3657225;79;98958;-85
2022/05/10 08:10:05;;;;;;;12.85;5.10;;;;;;;19.61;41.98;101234.39;3676171;78;99279;-87
2022/05/10 08:15:08;;;;;;;11.22;4.25;;;;;;;19.99;42.21;101233.06;3664134;79;98973;-87
2022/05/10 08:20:10;;;;;;;14.33;4.95;;;;;;;20.70;43.07;101227.33;3681087;79;99010;-87
2022/05/10 08:25:13;;;;;;;13.00;5.65;;;;;;;21.59;42.00;101216.80;3668471;79;98858;-88
2022/05/10 08:30:15;;;;;;;11.85;4.28;;;;;;;22.45;40.21;101213.84;3663557;79;98008;-87
2022/05/10 08:35:16;;;;;;;14.68;4.10;;;;;;;23.03;39.35;101211.31;3661363;79;99088;-86
2022/05/10 08:40:31;;;;;;;10.35;4.42;;;;;;;23.58;39.29;101213.76;3668752;79;99408;-86
2022/05/10 08:45:38;;;;;;;12.95;5.12;;;;;;;24.49;38.42;101210.08;3685640;78;98951;-85
2022/05/10 08:50:42;;;;;;;10.38;3.55;;;;;;;25.23;36.98;101194.21;3644831;79;98905;-86
2022/05/10 08:56:03;;;;;;;15.87;4.37;;;;;;;25.84;36.88;101191.47;3678489;80;27566;-88
2022/05/10 09:01:08;;;;;;;15.03;4.50;;;;;;;26.68;35.37;101188.81;3619782;80;98715;-85
2022/05/10 09:06:39;;;;;;;19.95;4.53;;;;;;;26.84;34.23;101192.75;3665317;79;98836;-87
2022/05/10 09:11:54;;;;;;;9.45;4.00;;;;;;;27.30;32.65;101174.53;3661564;78;99220;-85
2022/05/10 09:16:56;;;;;;;11.80;3.67;;;;;;;27.76;32.58;101184.48;3671344;80;98858;-86
2022/05/10 09:21:57;;;;;;;8.03;3.25;;;;;;;28.21;31.72;101177.23;3669485;78;99481;-86
2022/05/10 09:27:10;;;;;;;8.95;3.70;;;;;;;28.27;30.51;101171.71;3674061;79;99135;-85
2022/05/10 09:37:56;;;;;;;9.03;3.37;;;;;;;28.54;30.10;101155.97;3677208;78;26545;-84
2022/05/10 09:43:27;;;;;;;13.13;4.05;;;;;;;28.63;29.64;101148.83;3669010;79;98797;-86
2022/05/10 09:48:30;;;;;;;13.30;3.30;;;;;;;29.15;29.22;101139.59;3672237;78;99605;-87
2022/05/10 09:53:33;;;;;;;15.85;3.77;;;;;;;29.85;28.39;101142.13;3670528;79;99345;-85
2022/05/10 09:58:38;;;;;;;10.78;3.65;;;;;;;29.86;27.70;101137.23;3670498;78;99586;-85
2022/05/10 10:03:45;;;;;;;8.25;3.67;;;;;;;30.23;27.11;101132.01;3674509;79;99462;-91
2022/05/10 10:08:52;;;;;;;9.25;2.83;;;;;;;30.27;26.39;101127.53;3691536;78;99160;-87
2022/05/10 10:14:06;;;;;;;7.33;3.37;;;;;;;29.66;26.68;101116.68;3676961;78;98498;-85
2022/05/10 10:19:24;;;;;;;9.28;3.65;;;;;;;29.95;27.07;101112.34;3679768;79;98536;-87
2022/05/10 10:24:42;;;;;;;11.60;3.65;;;;;;;30.58;26.77;101103.55;3672974;79;98975;-89
2022/05/10 10:29:52;;;;;;;9.20;2.87;;;;;;;31.01;26.14;101105.34;3677858;78;98888;-88
2022/05/10 10:34:59;;;;;;;6.83;3.33;;;;;;;30.19;25.57;101099.42;3672229;79;98501;-85
2022/05/10 10:40:22;;;;;;;8.93;3.30;;;;;;;30.16;25.97;101077.06;3673009;79;99329;-84
2022/05/10 10:45:37;;;;;;;9.90;3.22;;;;;;;30.84;26.22;101073.89;3665102;79;98814;-85
2022/05/10 10:50:38;;;;;;;8.55;2.80;;;;;;;30.81;25.65;101079.80;3673138;79;98815;-85
2022/05/10 10:55:55;;;;;;;11.03;3.20;;;;;;;30.95;25.79;101065.47;3681969;79;25757;-87
2022/05/10 11:01:31;;;;;;;7.00;2.90;;;;;;;30.67;25.27;101060.14;3676419;79;99428;-85
2022/05/10 11:06:53;;;;;;;8.43;2.90;;;;;;;30.86;24.33;101046.39;3661982;80;98644;-85
2022/05/10 11:12:12;;;;;;;7.95;3.50;;;;;;;31.19;24.94;101026.19;3665621;79;98618;-87
2022/05/10 11:17:42;;;;;;;10.03;3.52;;;;;;;31.24;24.36;101033.98;3672711;79;99129;-87
2022/05/10 11:23:07;;;;;;;7.15;2.85;;;;;;;31.40;24.51;101024.02;3678307;79;99637;-85
2022/05/10 11:28:31;;;;;;;9.75;3.20;;;;;;;30.51;24.29;101022.34;3679783;78;98732;-87
2022/05/10 11:33:55;;;;;;;8.18;2.95;;;;;;;30.43;23.61;101019.81;3671210;78;99132;-85
2022/05/10 11:39:09;;;;;;;;;;;;;;;30.30;23.78;101008.03;3692388;79;98906;-90
2022/05/10 11:44:40;;;;;;;13.25;3.15;;;;;;;30.09;22.79;101000.00;3674224;79;85392;-88
2022/05/10 11:49:52;;;;;;;10.43;3.10;;;;;;;30.18;23.49;100997.82;3671783;79;27383;-90
2022/05/10 11:55:28;;;;;;;9.50;2.55;;;;;;;30.42;23.51;100973.44;3686467;78;98836;-84
2022/05/10 12:00:37;;;;;;;7.58;2.58;;;;;;;29.94;24.14;100973.11;3707025;79;98664;-85
2022/05/10 12:05:41;;;;;;;8.18;2.83;;;;;;;29.82;23.95;100960.06;3705056;78;98641;-90
2022/05/10 12:10:44;;;;;;;8.90;2.90;;;;;;;30.01;24.37;100950.59;3713735;79;99219;-86
2022/05/10 12:21:25;;;;;;;8.78;3.12;;;;;;;30.06;22.99;100937.90;3699516;79;99182;-84
2022/05/10 12:26:37;;;;;;;10.65;3.50;;;;;;;29.74;23.58;100928.35;3702539;78;99296;-85
2022/05/10 12:31:58;;;;;;;6.50;2.70;;;;;;;30.06;23.73;100920.86;3700773;78;98688;-87
2022/05/10 12:43:20;;;;;;;7.80;2.60;;;;;;;29.99;23.58;100908.53;3709695;77;98955;-86
2022/05/10 12:49:03;;;;;;;5.65;2.42;;;;;;;30.17;24.46;100900.34;3727969;77;99028;-86
2022/05/10 12:54:15;;;;;;;10.18;2.85;;;;;;;29.64;24.09;100890.05;3684578;78;98755;-84
2022/05/10 12:59:30;;;;;;;7.95;2.30;;;;;;;29.74;24.42;100878.69;3675411;79;99388;-85
2022/05/10 13:04:40;;;;;;;5.75;2.05;;;;;;;29.78;24.45;100873.56;3671368;79;98874;-87
2022/05/10 13:09:55;;;;;;;8.05;2.45;;;;;;;29.65;24.76;100859.73;3673997;78;99024;-86
2022/05/10 13:15:04;;;;;;;10.08;2.85;;;;;;;29.61;24.25;100857.77;3679243;78;99189;-85
2022/05/10 13:20:12;;;;;;;9.05;2.72;;;;;;;29.47;23.14;100851.49;3671685;78;27968;-83
2022/05/10 13:25:13;;;;;;;7.90;2.77;;;;;;;29.00;24.19;100841.18;3674632;78;99021;-84
2022/05/10 13:30:24;;;;;;;6.28;2.35;;;;;;;28.90;23.84;100820.66;3670773;79;98930;-87
2022/05/10 13:35:31;;;;;;;10.00;2.70;;;;;;;29.01;24.05;100824.31;3672425;78;98821;-88
2022/05/10 13:40:49;;;;;;;9.38;2.72;;;;;;;28.70;24.09;100824.86;3639290;78;99162;-84
2022/05/10 13:46:01;;;;;;;8.50;2.65;;;;;;;28.83;25.25;100807.55;3670090;78;98922;-86
2022/05/10 13:51:10;;;;;;;10.05;2.87;;;;;;;28.75;24.42;100789.37;3659688;79;99186;-88
2022/05/10 13:56:13;;;;;;;5.80;2.10;;;;;;;28.52;23.43;100788.28;3676880;79;28026;-90
2022/05/10 14:01:17;;;;;;;9.53;2.77;;;;;;;28.03;23.99;100786.78;3678962;78;98802;-87
2022/05/10 14:06:23;;;;;;;6.55;2.50;;;;;;;27.75;24.00;100767.09;3661174;79;98763;-88
2022/05/10 14:11:24;;;;;;;8.28;2.58;;;;;;;27.47;23.84;100756.51;3675956;79;99044;-85
2022/05/10 14:16:35;;;;;;;10.48;2.85;;;;;;;27.12;24.12;100757.70;3692699;79;99161;-92
2022/05/10 14:21:37;;;;;;;27.77;4.47;;;;;;;26.93;24.03;100751.24;3676734;79;98948;-89
2022/05/10 14:26:42;;;;;;;8.20;2.60;;;;;;;26.64;23.96;100754.70;3665084;79;98941;-91
2022/05/10 14:31:46;;;;;;;11.08;3.10;;;;;;;26.12;23.56;100755.23;3681405;78;98761;-90
2022/05/10 14:36:51;;;;;;;11.80;2.75;;;;;;;25.94;25.24;100730.53;3678469;78;98833;-87
2022/05/10 14:41:52;;;;;;;6.65;2.62;;;;;;;26.20;25.63;100720.41;3681904;78;98891;-87
2022/05/10 14:46:59;;;;;;;8.53;2.70;;;;;;;26.27;26.06;100715.18;3686341;79;99172;-86
2022/05/10 14:52:03;;;;;;;11.22;3.37;;;;;;;26.33;26.10;100698.39;3676575;79;99138;-87
2022/05/10 14:57:07;;;;;;;7.35;2.55;;;;;;;26.24;26.30;100710.51;3693564;78;98866;-88
2022/05/10 15:02:34;;;;;;;9.08;3.42;;;;;;;26.22;25.78;100698.13;3672247;79;98625;-85
2022/05/10 15:07:36;;;;;;;6.75;2.85;;;;;;;26.01;26.05;100691.48;3697709;78;27335;-85
2022/05/10 15:23:18;;;;;;;11.78;3.17;;;;;;;25.49;25.64;100679.22;3678216;78;99077;-84
2022/05/10 15:28:19;;;;;;;9.78;2.72;;;;;;;25.17;26.04;100672.80;3679889;78;99514;-85
2022/05/10 15:33:20;;;;;;;7.05;2.70;;;;;;;25.17;26.13;100665.77;3661819;79;98950;-88
2022/05/10 15:38:22;;;;;;;10.82;3.05;;;;;;;25.33;27.28;100656.25;3675989;80;32425;-89
2022/05/10 15:43:23;;;;;;;9.73;2.92;;;;;;;25.26;26.08;100656.55;3670054;79;99045;-88
2022/05/10 15:48:26;;;;;;;9.90;3.12;;;;;;;24.97;26.08;100649.19;3684797;78;99070;-86
2022/05/10 15:53:26;;;;;;;7.33;2.90;;;;;;;24.85;26.17;100642.45;3681659;77;99117;-86
2022/05/10 15:58:27;;;;;;;7.42;3.20;;;;;;;24.71;26.45;100638.87;3725060;77;99125;-85
2022/05/10 16:03:30;;;;;;;6.83;3.40;;;;;;;24.63;27.20;100633.37;3718235;77;99081;-85
2022/05/10 16:08:31;;;;;;;14.18;3.67;;;;;;;24.50;27.61;100615.83;3723891;77;32992;-88
2022/05/10 16:13:32;;;;;;;6.55;2.77;;;;;;;24.35;27.83;100617.67;3682586;78;99289;-87
2022/05/10 16:18:33;;;;;;;8.48;3.35;;;;;;;24.22;28.71;100612.02;3695555;78;98761;-89
2022/05/10 16:23:38;;;;;;;11.18;3.37;;;;;;;24.05;29.02;100600.27;3682581;78;99386;-87
2022/05/10 16:33:56;;;;;;;12.60;3.37;;;;;;;23.82;29.17;100600.77;3638486;78;99189;-87
2022/05/10 16:38:57;;;;;;;9.03;3.37;;;;;;;23.61;29.86;100587.59;3700267;78;99322;-87
2022/05/10 16:43:58;;;;;;;9.98;3.30;;;;;;;23.53;29.80;100586.90;3689812;78;98854;-87
2022/05/10 16:49:04;;;;;;;9.23;3.52;;;;;;;23.43;30.21;100579.05;3683198;78;99073;-88
2022/05/10 16:54:12;;;;;;;9.50;3.62;;;;;;;23.30;30.18;100583.20;3690088;78;98877;-89
2022/05/10 16:59:14;;;;;;;17.37;4.22;;;;;;;23.14;30.37;100574.34;3653811;79;99265;-87
2022/05/10 17:04:15;;;;;;;7.22;3.27;;;;;;;22.95;30.62;100564.22;3648628;78;99404;-88
2022/05/10 17:09:16;;;;;;;8.38;3.30;;;;;;;22.84;30.98;100560.27;3680302;77;99236;-88
2022/05/10 17:14:18;;;;;;;10.32;3.35;;;;;;;22.69;31.27;100561.41;3664196;79;99020;-87
2022/05/10 17:19:19;;;;;;;8.28;3.12;;;;;;;22.57;31.62;100552.41;3677146;77;98795;-86
2022/05/10 17:24:20;;;;;;;11.85;3.40;;;;;;;22.50;32.53;100549.09;3680939;77;98728;-87
2022/05/10 17:29:21;;;;;;;9.88;3.45;;;;;;;22.39;32.77;100537.44;3656916;79;99291;-85
2022/05/10 17:34:23;;;;;;;6.35;3.33;;;;;;;22.31;33.14;100540.31;3658109;79;99429;-86
2022/05/10 17:39:25;;;;;;;8.40;3.77;;;;;;;22.19;33.80;100533.50;3666405;79;98777;-87
2022/05/10 17:44:26;;;;;;;9.25;3.20;;;;;;;22.07;33.77;100527.94;3654273;79;98838;-86
2022/05/10 17:49:27;;;;;;;9.60;3.62;;;;;;;21.94;34.47;100528.57;3667652;79;99086;-88
2022/05/10 17:54:29;;;;;;;11.33;2.95;;;;;;;21.80;35.00;100529.83;3658539;79;98711;-84
2022/05/10 17:59:30;;;;;;;8.38;3.02;;;;;;;21.67;35.32;100524.04;3659923;79;99858;-85
2022/05/10 18:04:33;;;;;;;14.83;4.10;;;;;;;21.57;35.02;100525.20;3657511;79;98941;-85
2022/05/10 18:09:34;;;;;;;11.30;3.62;;;;;;;21.47;34.99;100523.52;3651300;77;98949;-85
2022/05/10 18:14:35;;;;;;;11.33;3.22;;;;;;;21.36;35.18;100519.63;3660737;79;98933;-85
2022/05/10 18:19:37;;;;;;;12.40;3.37;;;;;;;21.26;35.73;100519.98;3666207;78;98878;-85
2022/05/10 18:24:38;;;;;;;13.83;4.95;;;;;;;21.15;36.49;100518.88;3668295;77;98904;-84
2022/05/10 18:29:40;;;;;;;13.53;4.05;;;;;;;20.99;36.83;100521.77;3643413;79;98990;-85
2022/05/10 18:34:44;;;;;;;9.18;3.40;;;;;;;20.85;37.06;100520.78;3654702;79;99364;-85
2022/05/10 18:39:45;;;;;;;12.60;4.53;;;;;;;20.71;37.53;100519.01;3658865;79;99210;-85
2022/05/10 18:44:55;;;;;;;8.98;3.22;;;;;;;20.56;37.78;100522.83;3653851;79;99036;-86
2022/05/10 18:49:56;;;;;;;10.13;3.90;;;;;;;20.42;38.16;100519.02;3669077;77;98384;-87
2022/05/10 18:54:57;;;;;;;8.70;3.58;;;;;;;20.28;38.22;100520.02;3650721;79;99182;-86
2022/05/10 18:59:58;;;;;;;11.43;4.40;;;;;;;20.17;38.85;100523.71;3640926;79;99135;-85
2022/05/10 19:04:59;;;;;;;12.10;5.75;;;;;;;20.07;39.24;100529.76;3615632;78;99043;-85
2022/05/10 19:10:01;;;;;;;10.72;3.75;;;;;;;19.92;40.00;100521.53;3631215;79;98993;-86
2022/05/10 19:15:09;;;;;;;10.38;4.25;;;;;;;19.82;40.10;100522.58;3573332;78;98703;-85
2022/05/10 19:20:15;;;;;;;13.60;4.55;;;;;;;19.71;40.23;100526.24;3366879;84;27459;-85
2022/05/10 19:30:38;;;;;;;11.35;5.45;;;;;;;19.49;41.23;100515.41;3545123;78;28210;-84
2022/05/10 19:35:39;;;;;;;15.60;4.87;;;;;;;19.56;42.15;100506.09;3431864;83;99266;-85
2022/05/10 19:40:42;;;;;;;11.57;4.77;;;;;;;19.37;41.71;100509.13;3436986;81;99018;-84
2022/05/10 19:45:44;;;;;;;12.70;4.67;;;;;;;19.17;41.64;100506.96;3367717;85;99425;-85
2022/05/10 19:50:45;;;;;;;9.93;4.20;;;;;;;18.99;42.00;100496.02;3439868;84;99215;-85
2022/05/10 19:55:48;;;;;;;11.93;4.90;;;;;;;18.83;42.14;100494.57;3480305;84;98719;-84
2022/05/10 20:00:50;;;;;;;13.43;4.85;;;;;;;18.70;42.49;100493.67;3493269;81;99145;-84
2022/05/10 20:05:52;;;;;;;9.78;4.20;;;;;;;18.58;43.01;100492.92;3494086;83;99044;-86
2022/05/10 20:10:54;;;;;;;12.33;4.72;;;;;;;18.46;43.05;100490.16;3455087;83;98970;-85
2022/05/10 20:15:57;;;;;;;13.62;4.85;;;;;;;18.35;43.26;100484.61;3467825;82;99379;-86
2022/05/10 20:21:07;;;;;;;12.28;4.75;;;;;;;18.27;43.25;100493.70;3480943;82;99095;-86
2022/05/10 20:26:08;;;;;;;14.47;5.95;;;;;;;18.19;43.28;100481.11;3490362;83;99003;-85
2022/05/10 20:31:09;;;;;;;17.12;5.33;;;;;;;18.11;43.86;100483.06;3467280;82;99115;-85
2022/05/10 20:36:14;;;;;;;14.75;4.92;;;;;;;18.04;43.62;100490.17;3451637;84;99358;-85
2022/05/10 20:41:16;;;;;;;10.95;4.90;;;;;;;18.03;43.58;100483.03;3451580;84;99098;-85
2022/05/10 20:46:18;;;;;;;10.50;3.83;;;;;;;17.99;43.51;100478.13;3444071;82;99268;-86
2022/05/10 20:51:24;;;;;;;12.05;3.95;;;;;;;17.99;43.58;100488.64;3462405;84;99320;-85
2022/05/10 20:56:25;;;;;;;11.90;4.47;;;;;;;17.99;43.39;100487.87;3468415;84;25961;-85
2022/05/10 21:01:27;;;;;;;12.88;4.70;;;;;;;17.98;43.32;100475.93;3451250;83;99109;-84
2022/05/10 21:08:26;;;;;;;10.28;3.98;;;;;;;17.96;43.41;100471.41;3408957;85;99085;-84
2022/05/10 21:11:31;;;;;;;8.78;4.15;;;;;;;17.90;43.51;100477.28;3423643;84;99363;-84
2022/05/10 21:16:39;;;;;;;10.25;4.28;;;;;;;17.86;43.92;100472.97;3477883;84;99172;-85
2022/05/10 21:21:40;;;;;;;12.70;4.40;;;;;;;17.79;44.02;100458.59;3486285;83;99106;-84
2022/05/10 21:32:00;;;;;;;12.15;4.83;;;;;;;17.65;44.49;100460.84;3450286;82;99323;-85
2022/05/10 21:37:02;;;;;;;14.93;5.05;;;;;;;17.61;44.53;100444.80;3456789;84;98846;-84
2022/05/10 21:42:04;;;;;;;8.40;4.00;;;;;;;17.56;45.33;100455.78;3469490;83;98976;-84
2022/05/10 21:47:08;;;;;;;12.82;5.47;;;;;;;17.48;45.16;100451.56;3461726;82;98799;-83
2022/05/10 21:52:10;;;;;;;15.93;4.87;;;;;;;17.43;45.40;100438.13;3438841;82;99388;-84
2022/05/10 21:57:11;;;;;;;11.53;5.70;;;;;;;17.37;45.80;100434.23;3444972;84;31702;-84
2022/05/10 22:02:16;;;;;;;12.68;5.05;;;;;;;17.32;46.13;100433.31;3465903;84;98918;-84
2022/05/10 22:07:18;;;;;;;16.75;5.40;;;;;;;17.29;46.27;100428.61;3438401;84;98871;-85
2022/05/10 22:12:19;;;;;;;10.63;5.22;;;;;;;17.27;46.52;100428.84;3461120;83;99289;-85
2022/05/10 22:17:20;;;;;;;12.80;5.35;;;;;;;17.26;46.66;100417.52;3473251;83;99421;-84
2022/05/10 22:22:21;;;;;;;15.58;6.37;;;;;;;17.27;46.85;100414.31;3483418;81;99323;-85
2022/05/10 22:27:23;;;;;;;10.48;5.15;;;;;;;17.27;47.31;100415.70;3464861;83;99638;-84
2022/05/10 22:32:25;;;;;;;12.47;5.10;;;;;;;17.29;47.62;100409.14;3480842;83;99007;-85
2022/05/10 22:37:27;;;;;;;11.40;5.30;;;;;;;17.30;48.28;100404.34;3488257;83;98827;-84
2022/05/10 22:42:28;;;;;;;10.18;5.60;;;;;;;17.32;48.44;100394.95;3423512;84;99171;-85
2022/05/10 22:47:32;;;;;;;13.30;6.33;;;;;;;17.37;48.77;100390.30;3489462;83;99441;-85
2022/05/10 22:52:38;;;;;;;11.53;5.95;;;;;;;17.41;49.14;100383.52;3475641;81;99148;-83
2022/05/10 22:57:38;;;;;;;16.45;6.15;;;;;;;17.38;49.47;100364.08;3484613;82;99399;-84
2022/05/10 23:02:44;;;;;;;11.80;6.35;;;;;;;17.50;49.46;100374.62;3476886;84;99250;-85
2022/05/10 23:07:49;;;;;;;;;;;;;;;17.51;49.92;100370.62;3460284;84;98904;-85
2022/05/10 23:12:51;;;;;;;11.05;5.78;;;;;;;17.51;51.50;100363.08;3483968;82;85367;-85
2022/05/10 23:17:55;;;;;;;13.78;8.05;;;;;;;17.49;50.11;100372.44;3477618;83;99063;-85
2022/05/10 23:22:57;;;;;;;10.25;5.65;;;;;;;17.50;50.62;100367.67;3463718;82;99142;-84
2022/05/10 23:28:01;;;;;;;11.83;6.33;;;;;;;17.50;50.78;100357.93;3492712;81;99037;-84
2022/05/10 23:33:03;;;;;;;12.43;6.12;;;;;;;17.46;50.99;100358.00;3460194;84;98999;-84
2022/05/10 23:38:05;;;;;;;11.50;5.65;;;;;;;17.42;51.40;100354.48;3487380;81;99126;-84
2022/05/10 23:48:28;;;;;;;12.80;6.28;;;;;;;17.38;51.66;100346.00;3482427;81;99383;-84
2022/05/10 23:53:29;;;;;;;14.03;6.20;;;;;;;17.34;51.84;100337.69;3457354;83;99288;-84
2022/05/10 23:58:31;;;;;;;14.20;7.25;;;;;;;17.29;52.14;100330.45;3465736;83;98986;-84
